sensor_id;sensor_type;location;lat;lon;timestamp;pressure;altitude;pressure_sealevel;temperature;humidity
21594;BME280;10959;51.328;7.322;2022-07-29T00:01:19;98813.25;;;21.76;46.51
21594;BME280;10959;51.328;7.322;2022-07-29T00:03:46;98812.56;;;21.74;46.77
21594;BME280;10959;51.328;7.322;2022-07-29T00:06:13;98819.03;;;21.73;46.49
21594;BME280;10959;51.328;7.322;2022-07-29T00:08:41;98812.56;;;21.74;46.59
21594;BME280;10959;51.328;7.322;2022-07-29T00:11:08;98810.13;;;21.71;47.04
21594;BME280;10959;51.328;7.322;2022-07-29T00:13:34;98811.13;;;21.70;46.95
21594;BME280;10959;51.328;7.322;2022-07-29T00:16:00;98813.16;;;21.68;46.40
21594;BME280;10959;51.328;7.322;2022-07-29T00:18:27;98822.06;;;21.70;47.06
21594;BME280;10959;51.328;7.322;2022-07-29T00:20:54;98814.84;;;21.69;46.99
21594;BME280;10959;51.328;7.322;2022-07-29T00:23:20;98811.13;;;21.70;47.00
21594;BME280;10959;51.328;7.322;2022-07-29T00:25:48;98809.22;;;21.70;46.80
21594;BME280;10959;51.328;7.322;2022-07-29T00:28:15;98808.53;;;21.68;46.83
21594;BME280;10959;51.328;7.322;2022-07-29T00:30:41;98797.56;;;21.68;47.11
21594;BME280;10959;51.328;7.322;2022-07-29T00:33:08;98799.56;;;21.66;46.88
21594;BME280;10959;51.328;7.322;2022-07-29T00:35:35;98793.22;;;21.66;46.86
21594;BME280;10959;51.328;7.322;2022-07-29T00:38:10;98796.97;;;21.65;47.04
21594;BME280;10959;51.328;7.322;2022-07-29T00:40:37;98786.31;;;21.62;47.22
21594;BME280;10959;51.328;7.322;2022-07-29T00:43:05;98783.56;;;21.62;47.45
21594;BME280;10959;51.328;7.322;2022-07-29T00:45:31;98782.88;;;21.60;47.35
21594;BME280;10959;51.328;7.322;2022-07-29T00:47:58;98781.13;;;21.58;47.34
21594;BME280;10959;51.328;7.322;2022-07-29T00:50:25;98784.03;;;21.57;47.21
21594;BME280;10959;51.328;7.322;2022-07-29T00:52:51;98779.41;;;21.57;46.88
21594;BME280;10959;51.328;7.322;2022-07-29T00:55:18;98780.59;;;21.55;47.38
21594;BME280;10959;51.328;7.322;2022-07-29T00:57:45;98762.66;;;21.51;47.64
21594;BME280;10959;51.328;7.322;2022-07-29T01:00:16;98764.13;;;21.45;47.28
21594;BME280;10959;51.328;7.322;2022-07-29T01:02:43;98756.59;;;21.47;47.91
21594;BME280;10959;51.328;7.322;2022-07-29T01:05:10;98749.97;;;21.50;47.70
21594;BME280;10959;51.328;7.322;2022-07-29T01:07:38;98749.69;;;21.43;47.88
21594;BME280;10959;51.328;7.322;2022-07-29T01:10:07;98745.94;;;21.44;47.33
21594;BME280;10959;51.328;7.322;2022-07-29T01:12:34;98749.13;;;21.39;47.59
21594;BME280;10959;51.328;7.322;2022-07-29T01:15:02;98737.59;;;21.36;47.73
21594;BME280;10959;51.328;7.322;2022-07-29T01:17:36;98744.25;;;21.23;47.97
21594;BME280;10959;51.328;7.322;2022-07-29T01:20:07;98742.81;;;21.19;47.87
21594;BME280;10959;51.328;7.322;2022-07-29T01:23:01;98741.38;;;21.15;48.21
21594;BME280;10959;51.328;7.322;2022-07-29T01:25:46;98736.63;;;20.98;48.82
21594;BME280;10959;51.328;7.322;2022-07-29T01:28:39;98737.06;;;21.03;48.40
21594;BME280;10959;51.328;7.322;2022-07-29T01:31:07;98737.63;;;21.16;48.59
21594;BME280;10959;51.328;7.322;2022-07-29T01:33:38;98728.69;;;21.14;48.01
21594;BME280;10959;51.328;7.322;2022-07-29T01:36:18;98734.16;;;21.14;48.32
21594;BME280;10959;51.328;7.322;2022-07-29T01:38:54;98727.53;;;21.07;48.55
21594;BME280;10959;51.328;7.322;2022-07-29T01:41:22;98730.72;;;21.12;48.26
21594;BME280;10959;51.328;7.322;2022-07-29T01:43:54;98731.16;;;20.98;48.73
21594;BME280;10959;51.328;7.322;2022-07-29T01:46:27;98726.97;;;20.94;48.78
21594;BME280;10959;51.328;7.322;2022-07-29T01:49:01;98721.50;;;20.94;48.69
21594;BME280;10959;51.328;7.322;2022-07-29T01:51:31;98730.44;;;20.96;49.04
21594;BME280;10959;51.328;7.322;2022-07-29T01:54:02;98728.44;;;20.98;49.29
21594;BME280;10959;51.328;7.322;2022-07-29T01:56:31;98726.09;;;21.03;48.81
21594;BME280;10959;51.328;7.322;2022-07-29T01:59:01;98720.63;;;21.03;49.42
21594;BME280;10959;51.328;7.322;2022-07-29T02:01:29;98711.41;;;21.04;49.49
21594;BME280;10959;51.328;7.322;2022-07-29T02:03:58;98707.66;;;21.05;49.51
21594;BME280;10959;51.328;7.322;2022-07-29T02:06:25;98707.09;;;21.01;49.51
21594;BME280;10959;51.328;7.322;2022-07-29T02:08:54;98703.63;;;20.99;48.91
21594;BME280;10959;51.328;7.322;2022-07-29T02:11:22;98699.31;;;20.97;49.42
21594;BME280;10959;51.328;7.322;2022-07-29T02:13:50;98696.88;;;20.94;49.36
21594;BME280;10959;51.328;7.322;2022-07-29T02:16:20;98696.88;;;20.94;49.03
21594;BME280;10959;51.328;7.322;2022-07-29T02:18:49;98696.44;;;20.88;49.40
21594;BME280;10959;51.328;7.322;2022-07-29T02:21:19;98693.28;;;20.74;49.83
21594;BME280;10959;51.328;7.322;2022-07-29T02:23:48;98693.69;;;20.69;49.66
21594;BME280;10959;51.328;7.322;2022-07-29T02:26:17;98694.97;;;20.65;49.67
21594;BME280;10959;51.328;7.322;2022-07-29T02:28:44;98694.72;;;20.68;50.11
21594;BME280;10959;51.328;7.322;2022-07-29T02:31:12;98689.25;;;20.68;49.68
21594;BME280;10959;51.328;7.322;2022-07-29T02:33:41;98692.97;;;20.67;49.80
21594;BME280;10959;51.328;7.322;2022-07-29T02:36:09;98689.91;;;20.60;50.54
21594;BME280;10959;51.328;7.322;2022-07-29T02:38:37;98698.84;;;20.52;50.62
21594;BME280;10959;51.328;7.322;2022-07-29T02:41:20;98695.94;;;20.44;50.61
21594;BME280;10959;51.328;7.322;2022-07-29T02:43:56;98698.69;;;20.44;50.60
21594;BME280;10959;51.328;7.322;2022-07-29T02:46:29;98688.59;;;20.45;50.58
21594;BME280;10959;51.328;7.322;2022-07-29T02:49:01;98703.31;;;20.53;50.51
21594;BME280;10959;51.328;7.322;2022-07-29T02:51:33;98690.63;;;20.52;50.63
21594;BME280;10959;51.328;7.322;2022-07-29T02:54:07;98695.81;;;20.55;50.36
21594;BME280;10959;51.328;7.322;2022-07-29T02:56:34;98682.59;;;20.61;51.01
21594;BME280;10959;51.328;7.322;2022-07-29T02:59:05;98689.06;;;20.60;50.92
21594;BME280;10959;51.328;7.322;2022-07-29T03:01:34;98685.31;;;20.61;50.71
21594;BME280;10959;51.328;7.322;2022-07-29T03:04:04;98679.41;;;20.55;50.58
21594;BME280;10959;51.328;7.322;2022-07-29T03:06:32;98686.31;;;20.60;50.36
21594;BME280;10959;51.328;7.322;2022-07-29T03:09:00;98676.97;;;20.52;50.89
21594;BME280;10959;51.328;7.322;2022-07-29T03:11:28;98681.69;;;20.50;51.29
21594;BME280;10959;51.328;7.322;2022-07-29T03:13:55;98668.75;;;20.52;51.13
21594;BME280;10959;51.328;7.322;2022-07-29T03:16:22;98668.75;;;20.52;51.66
21594;BME280;10959;51.328;7.322;2022-07-29T03:18:50;98673.94;;;20.55;50.96
21594;BME280;10959;51.328;7.322;2022-07-29T03:21:18;98675.66;;;20.57;51.75
21594;BME280;10959;51.328;7.322;2022-07-29T03:23:45;98671.34;;;20.54;51.34
21594;BME280;10959;51.328;7.322;2022-07-29T03:26:12;98677.09;;;20.51;51.35
21594;BME280;10959;51.328;7.322;2022-07-29T03:28:39;98677.09;;;20.51;51.87
21594;BME280;10959;51.328;7.322;2022-07-29T03:31:05;98674.22;;;20.52;51.79
21594;BME280;10959;51.328;7.322;2022-07-29T03:33:32;98670.50;;;20.53;51.66
21594;BME280;10959;51.328;7.322;2022-07-29T03:35:58;98668.75;;;20.52;51.72
21594;BME280;10959;51.328;7.322;2022-07-29T03:38:30;98674.50;;;20.49;51.35
21594;BME280;10959;51.328;7.322;2022-07-29T03:41:02;98672.47;;;20.51;51.58
21594;BME280;10959;51.328;7.322;2022-07-29T03:43:30;98672.47;;;20.51;51.62
21594;BME280;10959;51.328;7.322;2022-07-29T03:45:59;98668.75;;;20.52;52.33
21594;BME280;10959;51.328;7.322;2022-07-29T03:48:28;98674.22;;;20.52;52.34
21594;BME280;10959;51.328;7.322;2022-07-29T03:50:56;98675.38;;;20.50;51.99
21594;BME280;10959;51.328;7.322;2022-07-29T03:53:23;98682.56;;;20.51;52.31
21594;BME280;10959;51.328;7.322;2022-07-29T03:55:54;98680.53;;;20.43;52.28
21594;BME280;10959;51.328;7.322;2022-07-29T03:58:26;98683.44;;;20.51;52.04
21594;BME280;10959;51.328;7.322;2022-07-29T04:00:54;98691.22;;;20.46;52.22
21594;BME280;10959;51.328;7.322;2022-07-29T04:03:21;98697.97;;;20.42;52.60
21594;BME280;10959;51.328;7.322;2022-07-29T04:05:58;98703.97;;;20.16;52.63
21594;BME280;10959;51.328;7.322;2022-07-29T04:08:24;98700.94;;;20.19;53.10
21594;BME280;10959;51.328;7.322;2022-07-29T04:10:52;98721.38;;;20.15;52.69
21594;BME280;10959;51.328;7.322;2022-07-29T04:13:19;98729.09;;;20.10;53.32
21594;BME280;10959;51.328;7.322;2022-07-29T04:15:46;98727.66;;;20.06;53.62
21594;BME280;10959;51.328;7.322;2022-07-29T04:18:12;98729.66;;;20.04;53.97
21594;BME280;10959;51.328;7.322;2022-07-29T04:20:39;98737.16;;;20.02;53.62
21594;BME280;10959;51.328;7.322;2022-07-29T04:23:05;98744.88;;;19.97;54.06
21594;BME280;10959;51.328;7.322;2022-07-29T04:25:31;98737.69;;;19.96;53.64
21594;BME280;10959;51.328;7.322;2022-07-29T04:27:59;98740.56;;;19.94;54.62
21594;BME280;10959;51.328;7.322;2022-07-29T04:30:30;98739.72;;;19.94;55.38
21594;BME280;10959;51.328;7.322;2022-07-29T04:32:57;98744.69;;;19.89;56.73
21594;BME280;10959;51.328;7.322;2022-07-29T04:35:23;98749.97;;;19.80;57.48
21594;BME280;10959;51.328;7.322;2022-07-29T04:37:50;98744.56;;;19.69;57.50
21594;BME280;10959;51.328;7.322;2022-07-29T04:40:17;98744.13;;;19.64;58.03
21594;BME280;10959;51.328;7.322;2022-07-29T04:42:43;98745.25;;;19.61;58.13
21594;BME280;10959;51.328;7.322;2022-07-29T04:45:11;98752.13;;;19.56;58.42
21594;BME280;10959;51.328;7.322;2022-07-29T04:47:37;98752.94;;;19.46;58.79
21594;BME280;10959;51.328;7.322;2022-07-29T04:50:05;98755.19;;;19.41;58.98
21594;BME280;10959;51.328;7.322;2022-07-29T04:52:32;98760.19;;;19.36;58.66
21594;BME280;10959;51.328;7.322;2022-07-29T04:54:59;98755.19;;;19.41;58.56
21594;BME280;10959;51.328;7.322;2022-07-29T04:57:26;98753.72;;;19.37;59.05
21594;BME280;10959;51.328;7.322;2022-07-29T04:59:52;98750.28;;;19.35;59.29
21594;BME280;10959;51.328;7.322;2022-07-29T05:02:20;98760.25;;;19.25;59.56
21594;BME280;10959;51.328;7.322;2022-07-29T05:04:47;98757.06;;;19.20;59.50
21594;BME280;10959;51.328;7.322;2022-07-29T05:07:13;98752.47;;;19.20;60.25
21594;BME280;10959;51.328;7.322;2022-07-29T05:09:40;98761.66;;;19.19;59.62
21594;BME280;10959;51.328;7.322;2022-07-29T05:12:07;98768.53;;;19.13;59.87
21594;BME280;10959;51.328;7.322;2022-07-29T05:14:33;98766.50;;;19.15;59.65
21594;BME280;10959;51.328;7.322;2022-07-29T05:17:00;98753.59;;;19.17;59.39
21594;BME280;10959;51.328;7.322;2022-07-29T05:19:27;98761.06;;;19.15;59.65
21594;BME280;10959;51.328;7.322;2022-07-29T05:21:54;98767.38;;;19.16;59.70
21594;BME280;10959;51.328;7.322;2022-07-29T05:24:20;98760.78;;;19.19;59.27
21594;BME280;10959;51.328;7.322;2022-07-29T05:26:47;98760.53;;;19.22;59.97
21594;BME280;10959;51.328;7.322;2022-07-29T05:29:13;98768.91;;;19.30;59.77
21594;BME280;10959;51.328;7.322;2022-07-29T05:31:40;98776.41;;;19.28;59.45
21594;BME280;10959;51.328;7.322;2022-07-29T05:34:06;98777.88;;;19.32;59.58
21594;BME280;10959;51.328;7.322;2022-07-29T05:36:34;98778.19;;;19.39;59.54
21594;BME280;10959;51.328;7.322;2022-07-29T05:39:00;98775.56;;;19.37;59.37
21594;BME280;10959;51.328;7.322;2022-07-29T05:41:27;98784.53;;;19.39;60.02
21594;BME280;10959;51.328;7.322;2022-07-29T05:43:54;98786.22;;;19.40;59.49
21594;BME280;10959;51.328;7.322;2022-07-29T05:46:20;98789.72;;;19.42;59.42
21594;BME280;10959;51.328;7.322;2022-07-29T05:48:46;98787.19;;;19.50;59.46
21594;BME280;10959;51.328;7.322;2022-07-29T05:51:13;98789.91;;;19.50;59.69
21594;BME280;10959;51.328;7.322;2022-07-29T05:53:41;98793.84;;;19.58;59.69
21594;BME280;10959;51.328;7.322;2022-07-29T05:56:07;98790.09;;;19.59;59.58
21594;BME280;10959;51.328;7.322;2022-07-29T05:58:34;98793.84;;;19.58;60.40
21594;BME280;10959;51.328;7.322;2022-07-29T06:01:01;98785.19;;;19.52;60.55
21594;BME280;10959;51.328;7.322;2022-07-29T06:03:28;98782.25;;;19.44;60.83
21594;BME280;10959;51.328;7.322;2022-07-29T06:05:55;98787.25;;;19.39;60.66
21594;BME280;10959;51.328;7.322;2022-07-29T06:08:21;98794.69;;;19.37;60.51
21594;BME280;10959;51.328;7.322;2022-07-29T06:10:50;98790.13;;;19.38;60.38
21594;BME280;10959;51.328;7.322;2022-07-29T06:13:17;98786.50;;;19.37;60.77
21594;BME280;10959;51.328;7.322;2022-07-29T06:15:43;98787.97;;;19.41;61.22
21594;BME280;10959;51.328;7.322;2022-07-29T06:18:10;98780.97;;;19.27;61.76
21594;BME280;10959;51.328;7.322;2022-07-29T06:20:38;98782.84;;;19.27;62.24
21594;BME280;10959;51.328;7.322;2022-07-29T06:23:04;98792.81;;;19.16;62.41
21594;BME280;10959;51.328;7.322;2022-07-29T06:25:31;98794.34;;;19.09;62.86
21594;BME280;10959;51.328;7.322;2022-07-29T06:28:01;98793.81;;;19.15;62.81
21594;BME280;10959;51.328;7.322;2022-07-29T06:30:27;98789.81;;;19.20;62.83
21594;BME280;10959;51.328;7.322;2022-07-29T06:32:54;98790.75;;;19.30;62.21
21594;BME280;10959;51.328;7.322;2022-07-29T06:35:21;98792.72;;;19.39;61.53
21594;BME280;10959;51.328;7.322;2022-07-29T06:37:47;98789.16;;;19.48;61.14
21594;BME280;10959;51.328;7.322;2022-07-29T06:40:14;98799.41;;;19.56;60.80
21594;BME280;10959;51.328;7.322;2022-07-29T06:42:58;98788.97;;;19.61;60.62
21594;BME280;10959;51.328;7.322;2022-07-29T06:45:26;98793.22;;;19.75;60.20
21594;BME280;10959;51.328;7.322;2022-07-29T06:47:52;98786.25;;;19.82;59.81
21594;BME280;10959;51.328;7.322;2022-07-29T06:50:20;98796.91;;;19.85;59.93
21594;BME280;10959;51.328;7.322;2022-07-29T06:52:47;98797.81;;;19.96;59.69
21594;BME280;10959;51.328;7.322;2022-07-29T06:55:13;98795.81;;;19.98;59.68
21594;BME280;10959;51.328;7.322;2022-07-29T06:57:40;98789.53;;;20.07;59.23
21594;BME280;10959;51.328;7.322;2022-07-29T07:00:07;98800.19;;;20.10;59.71
21594;BME280;10959;51.328;7.322;2022-07-29T07:02:36;98804.38;;;20.14;59.83
21594;BME280;10959;51.328;7.322;2022-07-29T07:05:02;98803.38;;;20.15;59.38
21594;BME280;10959;51.328;7.322;2022-07-29T07:07:30;98793.91;;;20.19;59.95
21594;BME280;10959;51.328;7.322;2022-07-29T07:09:57;98795.09;;;20.27;60.12
21594;BME280;10959;51.328;7.322;2022-07-29T07:12:23;98803.72;;;20.32;59.88
21594;BME280;10959;51.328;7.322;2022-07-29T07:14:50;98803.47;;;20.35;59.91
21594;BME280;10959;51.328;7.322;2022-07-29T07:17:16;98811.38;;;20.38;59.17
21594;BME280;10959;51.328;7.322;2022-07-29T07:19:44;98810.16;;;20.52;58.82
21594;BME280;10959;51.328;7.322;2022-07-29T07:22:11;98808.69;;;20.58;59.24
21594;BME280;10959;51.328;7.322;2022-07-29T07:24:37;98814.91;;;20.60;58.46
21594;BME280;10959;51.328;7.322;2022-07-29T07:27:04;98817.84;;;20.68;58.97
21594;BME280;10959;51.328;7.322;2022-07-29T07:29:30;98819.31;;;20.72;58.36
21594;BME280;10959;51.328;7.322;2022-07-29T07:31:58;98816.00;;;20.78;57.65
21594;BME280;10959;51.328;7.322;2022-07-29T07:34:24;98815.72;;;20.91;57.73
21594;BME280;10959;51.328;7.322;2022-07-29T07:36:52;98810.25;;;21.01;57.97
21594;BME280;10959;51.328;7.322;2022-07-29T07:39:19;98812.28;;;21.18;58.39
21594;BME280;10959;51.328;7.322;2022-07-29T07:41:45;98814.31;;;21.55;56.59
21594;BME280;10959;51.328;7.322;2022-07-29T07:44:12;98816.00;;;21.76;57.11
21594;BME280;10959;51.328;7.322;2022-07-29T07:46:38;98819.13;;;22.01;55.85
21594;BME280;10959;51.328;7.322;2022-07-29T07:49:05;98815.59;;;22.18;55.16
21594;BME280;10959;51.328;7.322;2022-07-29T07:51:31;98822.25;;;22.16;54.75
21594;BME280;10959;51.328;7.322;2022-07-29T07:53:59;98824.97;;;22.16;55.33
21594;BME280;10959;51.328;7.322;2022-07-29T07:56:26;98827.03;;;22.14;55.14
21594;BME280;10959;51.328;7.322;2022-07-29T07:58:52;98825.59;;;22.09;54.39
21594;BME280;10959;51.328;7.322;2022-07-29T08:01:19;98820.25;;;22.08;54.89
21594;BME280;10959;51.328;7.322;2022-07-29T08:03:48;98816.47;;;22.09;54.90
21594;BME280;10959;51.328;7.322;2022-07-29T08:06:14;98819.34;;;22.17;54.69
21594;BME280;10959;51.328;7.322;2022-07-29T08:08:41;98819.47;;;22.25;55.44
21594;BME280;10959;51.328;7.322;2022-07-29T08:11:09;98827.69;;;22.35;54.54
21594;BME280;10959;51.328;7.322;2022-07-29T08:13:36;98824.50;;;22.40;54.57
21594;BME280;10959;51.328;7.322;2022-07-29T08:16:03;98822.44;;;22.42;54.41
21594;BME280;10959;51.328;7.322;2022-07-29T08:18:38;98815.63;;;22.46;54.40
21594;BME280;10959;51.328;7.322;2022-07-29T08:21:05;98814.00;;;22.53;53.76
21594;BME280;10959;51.328;7.322;2022-07-29T08:23:32;98821.25;;;22.54;53.94
21594;BME280;10959;51.328;7.322;2022-07-29T08:26:04;98814.59;;;22.57;54.20
21594;BME280;10959;51.328;7.322;2022-07-29T08:28:32;98818.59;;;22.63;54.89
21594;BME280;10959;51.328;7.322;2022-07-29T08:30:58;98820.34;;;22.64;54.27
21594;BME280;10959;51.328;7.322;2022-07-29T08:33:25;98815.38;;;22.67;54.46
21594;BME280;10959;51.328;7.322;2022-07-29T08:35:51;98818.72;;;22.71;54.35
21594;BME280;10959;51.328;7.322;2022-07-29T08:38:18;98821.44;;;22.71;54.75
21594;BME280;10959;51.328;7.322;2022-07-29T08:40:44;98820.41;;;22.72;54.58
21594;BME280;10959;51.328;7.322;2022-07-29T08:43:11;98812.91;;;22.74;55.31
21594;BME280;10959;51.328;7.322;2022-07-29T08:45:44;98814.22;;;22.70;55.17
21594;BME280;10959;51.328;7.322;2022-07-29T08:48:11;98818.63;;;22.81;55.60
21594;BME280;10959;51.328;7.322;2022-07-29T08:50:39;98825.69;;;22.83;55.24
21594;BME280;10959;51.328;7.322;2022-07-29T08:53:09;98822.94;;;22.83;55.35
21594;BME280;10959;51.328;7.322;2022-07-29T08:55:38;98820.81;;;22.77;55.30
21594;BME280;10959;51.328;7.322;2022-07-29T08:58:05;98815.97;;;22.71;54.99
21594;BME280;10959;51.328;7.322;2022-07-29T09:00:32;98827.34;;;22.48;55.33
21594;BME280;10959;51.328;7.322;2022-07-29T09:03:04;98832.03;;;22.38;55.35
21594;BME280;10959;51.328;7.322;2022-07-29T09:05:32;98823.03;;;22.46;54.85
21594;BME280;10959;51.328;7.322;2022-07-29T09:07:59;98824.63;;;22.66;54.43
21594;BME280;10959;51.328;7.322;2022-07-29T09:10:26;98823.47;;;22.69;54.66
21594;BME280;10959;51.328;7.322;2022-07-29T09:12:54;98826.31;;;22.77;54.32
21594;BME280;10959;51.328;7.322;2022-07-29T09:15:21;98825.69;;;22.83;54.36
21594;BME280;10959;51.328;7.322;2022-07-29T09:17:48;98825.38;;;22.86;54.19
21594;BME280;10959;51.328;7.322;2022-07-29T09:20:18;98825.09;;;22.89;54.35
21594;BME280;10959;51.328;7.322;2022-07-29T09:22:45;98819.28;;;22.92;54.09
21594;BME280;10959;51.328;7.322;2022-07-29T09:25:14;98819.28;;;22.92;54.63
21594;BME280;10959;51.328;7.322;2022-07-29T09:27:41;98815.53;;;22.93;55.09
21594;BME280;10959;51.328;7.322;2022-07-29T09:30:15;98817.25;;;22.94;55.14
21594;BME280;10959;51.328;7.322;2022-07-29T09:32:55;98811.59;;;22.78;56.04
21594;BME280;10959;51.328;7.322;2022-07-29T09:35:25;98810.63;;;22.87;56.10
21594;BME280;10959;51.328;7.322;2022-07-29T09:37:53;98818.88;;;22.87;56.13
21594;BME280;10959;51.328;7.322;2022-07-29T09:40:23;98812.38;;;22.88;56.40
21594;BME280;10959;51.328;7.322;2022-07-29T09:42:50;98813.84;;;22.83;56.20
21594;BME280;10959;51.328;7.322;2022-07-29T09:45:28;98812.38;;;22.60;55.59
21594;BME280;10959;51.328;7.322;2022-07-29T09:47:56;98817.88;;;22.60;55.87
21594;BME280;10959;51.328;7.322;2022-07-29T09:50:36;98808.19;;;22.38;56.01
21594;BME280;10959;51.328;7.322;2022-07-29T09:53:03;98804.38;;;22.49;55.71
21594;BME280;10959;51.328;7.322;2022-07-29T09:55:29;98792.06;;;22.53;55.97
21594;BME280;10959;51.328;7.322;2022-07-29T09:58:14;98799.66;;;22.32;56.09
21594;BME280;10959;51.328;7.322;2022-07-29T10:00:41;98791.53;;;22.50;56.06
21594;BME280;10959;51.328;7.322;2022-07-29T10:03:08;98799.28;;;22.54;56.31
21594;BME280;10959;51.328;7.322;2022-07-29T10:05:36;98804.16;;;22.60;56.32
21594;BME280;10959;51.328;7.322;2022-07-29T10:08:04;98802.13;;;22.63;56.13
21594;BME280;10959;51.328;7.322;2022-07-29T10:10:34;98801.81;;;22.66;55.48
21594;BME280;10959;51.328;7.322;2022-07-29T10:13:03;98810.47;;;22.71;55.06
21594;BME280;10959;51.328;7.322;2022-07-29T10:15:30;98807.78;;;22.79;54.65
21594;BME280;10959;51.328;7.322;2022-07-29T10:17:59;98808.91;;;22.86;54.69
21594;BME280;10959;51.328;7.322;2022-07-29T10:20:27;98808.00;;;22.95;54.54
21594;BME280;10959;51.328;7.322;2022-07-29T10:22:55;98814.91;;;23.00;54.54
21594;BME280;10959;51.328;7.322;2022-07-29T10:25:22;98805.66;;;23.01;54.07
21594;BME280;10959;51.328;7.322;2022-07-29T10:27:50;98802.59;;;23.04;54.57
21594;BME280;10959;51.328;7.322;2022-07-29T10:30:18;98801.53;;;23.05;54.03
21594;BME280;10959;51.328;7.322;2022-07-29T10:33:10;98803.72;;;22.83;54.61
21594;BME280;10959;51.328;7.322;2022-07-29T10:35:51;98807.13;;;22.95;54.70
21594;BME280;10959;51.328;7.322;2022-07-29T10:38:41;98813.59;;;22.76;54.03
21594;BME280;10959;51.328;7.322;2022-07-29T10:41:18;98818.09;;;22.77;54.12
21594;BME280;10959;51.328;7.322;2022-07-29T10:43:56;98815.81;;;22.90;54.07
21594;BME280;10959;51.328;7.322;2022-07-29T10:46:23;98817.25;;;22.94;53.91
21594;BME280;10959;51.328;7.322;2022-07-29T10:49:11;98820.81;;;22.77;54.33
21594;BME280;10959;51.328;7.322;2022-07-29T10:51:55;98820.31;;;22.91;54.23
21594;BME280;10959;51.328;7.322;2022-07-29T10:54:40;98809.09;;;23.03;53.77
21594;BME280;10959;51.328;7.322;2022-07-29T10:57:16;98808.56;;;23.17;53.54
21594;BME280;10959;51.328;7.322;2022-07-29T10:59:43;98811.72;;;23.40;53.49
21594;BME280;10959;51.328;7.322;2022-07-29T11:02:42;98807.94;;;23.23;54.20
21594;BME280;10959;51.328;7.322;2022-07-29T11:05:10;98815.09;;;23.52;54.02
21594;BME280;10959;51.328;7.322;2022-07-29T11:07:39;98813.69;;;23.48;53.46
21594;BME280;10959;51.328;7.322;2022-07-29T11:10:23;98817.28;;;23.30;54.16
21594;BME280;10959;51.328;7.322;2022-07-29T11:12:50;98799.97;;;23.56;53.58
21594;BME280;10959;51.328;7.322;2022-07-29T11:15:18;98796.97;;;23.68;53.84
21594;BME280;10959;51.328;7.322;2022-07-29T11:18:04;98804.38;;;23.49;53.54
21594;BME280;10959;51.328;7.322;2022-07-29T11:20:32;98798.22;;;23.73;53.86
21594;BME280;10959;51.328;7.322;2022-07-29T11:22:59;98802.38;;;23.77;53.54
21594;BME280;10959;51.328;7.322;2022-07-29T11:25:27;98801.69;;;23.75;53.13
21594;BME280;10959;51.328;7.322;2022-07-29T11:28:08;98801.72;;;23.57;53.86
21594;BME280;10959;51.328;7.322;2022-07-29T11:30:49;98799.69;;;23.59;53.55
21594;BME280;10959;51.328;7.322;2022-07-29T11:33:29;98796.22;;;23.57;53.39
21594;BME280;10959;51.328;7.322;2022-07-29T11:36:09;98798.59;;;23.52;52.92
21594;BME280;10959;51.328;7.322;2022-07-29T11:38:36;98796.34;;;23.74;52.88
21594;BME280;10959;51.328;7.322;2022-07-29T11:41:23;98804.31;;;23.59;53.14
21594;BME280;10959;51.328;7.322;2022-07-29T11:43:51;98801.97;;;23.90;52.65
21594;BME280;10959;51.328;7.322;2022-07-29T11:46:45;98794.63;;;23.73;53.19
21594;BME280;10959;51.328;7.322;2022-07-29T11:49:18;98798.22;;;23.91;53.64
21594;BME280;10959;51.328;7.322;2022-07-29T11:51:50;98791.94;;;23.81;53.23
21594;BME280;10959;51.328;7.322;2022-07-29T11:54:23;98795.31;;;23.93;53.56
21594;BME280;10959;51.328;7.322;2022-07-29T11:56:51;98794.31;;;24.28;53.07
21594;BME280;10959;51.328;7.322;2022-07-29T11:59:19;98787.84;;;24.46;53.21
21594;BME280;10959;51.328;7.322;2022-07-29T12:01:52;98792.75;;;24.60;53.29
21594;BME280;10959;51.328;7.322;2022-07-29T12:04:19;98793.16;;;24.74;52.38
21594;BME280;10959;51.328;7.322;2022-07-29T12:06:49;98797.06;;;24.63;51.74
21594;BME280;10959;51.328;7.322;2022-07-29T12:09:15;98794.13;;;24.64;52.26
21594;BME280;10959;51.328;7.322;2022-07-29T12:11:42;98795.63;;;24.59;52.01
21594;BME280;10959;51.328;7.322;2022-07-29T12:14:24;98797.50;;;24.50;52.49
21594;BME280;10959;51.328;7.322;2022-07-29T12:16:50;98803.78;;;24.69;51.61
21594;BME280;10959;51.328;7.322;2022-07-29T12:19:17;98801.97;;;24.51;52.72
21594;BME280;10959;51.328;7.322;2022-07-29T12:21:45;98805.06;;;24.48;52.71
21594;BME280;10959;51.328;7.322;2022-07-29T12:24:11;98805.69;;;24.42;52.57
21594;BME280;10959;51.328;7.322;2022-07-29T12:26:49;98818.31;;;24.18;52.97
21594;BME280;10959;51.328;7.322;2022-07-29T12:29:17;98810.47;;;24.31;52.65
21594;BME280;10959;51.328;7.322;2022-07-29T12:31:44;98808.41;;;24.25;52.86
21594;BME280;10959;51.328;7.322;2022-07-29T12:34:12;98814.50;;;24.11;53.14
21594;BME280;10959;51.328;7.322;2022-07-29T12:36:40;98818.69;;;24.23;52.67
21594;BME280;10959;51.328;7.322;2022-07-29T12:39:07;98809.81;;;24.38;52.67
21594;BME280;10959;51.328;7.322;2022-07-29T12:41:34;98805.06;;;24.48;52.34
21594;BME280;10959;51.328;7.322;2022-07-29T12:44:00;98815.91;;;24.58;52.36
21594;BME280;10959;51.328;7.322;2022-07-29T12:46:28;98814.44;;;24.63;51.68
21594;BME280;10959;51.328;7.322;2022-07-29T12:48:55;98813.03;;;24.59;51.66
21594;BME280;10959;51.328;7.322;2022-07-29T12:51:28;98814.75;;;24.60;50.91
21594;BME280;10959;51.328;7.322;2022-07-29T12:54:04;98809.91;;;24.54;50.88
21594;BME280;10959;51.328;7.322;2022-07-29T12:56:31;98807.94;;;24.73;51.22
21594;BME280;10959;51.328;7.322;2022-07-29T12:58:57;98811.78;;;24.88;51.39
21594;BME280;10959;51.328;7.322;2022-07-29T13:01:24;98808.38;;;25.02;52.17
21594;BME280;10959;51.328;7.322;2022-07-29T13:03:54;98806.69;;;25.18;50.55
21594;BME280;10959;51.328;7.322;2022-07-29T13:06:34;98807.34;;;25.12;51.16
21594;BME280;10959;51.328;7.322;2022-07-29T13:09:04;98803.91;;;25.26;50.65
21594;BME280;10959;51.328;7.322;2022-07-29T13:11:33;98810.16;;;25.37;51.55